首页
METAR-TAF:

METAR-TAF

机场 :

Lakenheath, 英格兰

纬度: 52-25N, 经度: 000-34E, 海拔: 10米

当前天气观测

该预报发布于26分钟前的17:56 UTC
风速6节,风向南转南东
温度 32°C
湿度 26%
气压 1016 hPa
能见度10公里或以上
散云层高于18000英尺

METAR: EGUL 071756Z AUTO 15006KT 9999 SCT180 32/10 A2999 RMK AO2 SLP159 T03180099 10353 20317 57005 $

时间: 19:22 (18:22 UTC)

预报

该预报发布于7小时和13分钟前的11:09 UTC
预报有效从07日的 11点(UTC)到 08日的 12点(UTC)
风速6节,风向多变
能见度10公里或以上
天空无云
成为
从 07日的 11点(UTC)到 07日的 12点(UTC)
风速10节,风向南转南东,有时为18节阵风
能见度10公里或以上
天空无云
成为
从 07日的 17点(UTC)到 07日的 18点(UTC)
风速12节,风向
能见度10公里或以上
散云层高于12000英尺
成为
从 08日的 00点(UTC)到 08日的 01点(UTC)
风速6节,风向北转东北
能見度: 0809
散云层高于12000英尺

TAF: EGUL 071109Z 0711/0812 VRB06KT 9999 SKC QNH3004INS BECMG 0711/0712 16010G18KT 9999 SKC QNH3000INS BECMG 0717/0718 18012KT 9999 SCT120 QNH3001INS BECMG 0800/0801 03006KT 9999 SCT120 QNH3002INS TX34/0715Z TN17/0806Z LAST NO AMDS AFT 0711 NEXT 0809

超过4000个机场的气象观测和天气预报(METAR&TAF报告)。

可查询的气象台以黄色和红色小点在地图上表示。

将鼠标移到小点上方,可查看气象台名称。

然后点击查看天气观测和预报。

如需切换地图:点击带黑十字的绿色按钮放大地图;点击带横线的绿色按钮缩小地图;或者点击绿色箭头查看邻近地区的地图。


METAR-TAF: